Ube, Japan
Current Conditions -  °F | °C
As of 9:00 PM on Saturday 20 Dec 2014 (Local Time) from RJDC Reporting Station
Broken Clouds Broken Clouds  
Wind Chill: 44°   Ceiling: 5000
Heat Index: 46°   Visibility: 5mi
Dew Point: 34°   Wind: 5mph
Humidity: 62%   Direction: 340°NNW
Pressure: 30.06"   Gusts: NA
Location:  33.94°N, 131.24°E
Report Text: RJDC 201200Z 34004KT 300V020 8000 FEW020 SCT040 BKN050 08/01 Q1018
Loading
Personal Weather Stations






























Interactive Weather Map New forecast layout! Learn more

10-Day Weather Forecast

Advertisements
Track Severe Weather on mobile